Time;durP1;ratioP1;P1;durP2;ratioP2;P2;SDS_P1;SDS_P2;PMS_P1;PMS_P2;Temp;Humidity;BMP_temperature;BMP_pressure;BME280_temperature;BME280_humidity;BME280_pressure;Samples;Min_cycle;Max_cycle;Signal;HPM_P1;HPM_P2
2022/12/10 00:01:47;;;;;;;22.40;10.00;;;;;;;9.08;93.22;94186.88;4971145;28;20648;-76
2022/12/10 00:04:13;;;;;;;18.03;8.37;;;;;;;8.99;93.39;94159.31;4966037;28;20910;-76
2022/12/10 00:06:39;;;;;;;20.67;9.80;;;;;;;9.15;93.16;94192.84;4966638;28;20180;-76
2022/12/10 00:09:08;;;;;;;28.10;11.40;;;;;;;9.03;93.13;94197.19;4969544;28;20501;-76
2022/12/10 00:11:33;;;;;;;24.58;10.07;;;;;;;8.85;94.38;94200.59;4964067;28;20418;-76
2022/12/10 00:14:00;;;;;;;22.83;8.87;;;;;;;8.87;94.64;94180.19;4987122;28;20181;-77
2022/12/10 00:16:28;;;;;;;23.37;9.00;;;;;;;9.00;94.60;94195.00;4986415;28;20169;-77
2022/12/10 00:18:54;;;;;;;18.80;10.43;;;;;;;8.94;94.27;94177.50;4973451;28;20189;-75
2022/12/10 00:21:26;;;;;;;23.70;11.17;;;;;;;9.21;93.48;94181.47;4985398;28;20181;-75
2022/12/10 00:23:52;;;;;;;17.63;8.60;;;;;;;9.34;92.50;94188.41;4992889;28;20177;-76
2022/12/10 00:26:38;;;;;;;19.63;9.17;;;;;;;9.19;92.93;94187.94;4988728;28;20854;-76
2022/12/10 00:29:06;;;;;;;18.08;8.75;;;;;;;9.14;93.61;94182.56;4964895;28;20440;-75
2022/12/10 00:31:34;;;;;;;22.23;8.10;;;;;;;9.14;93.84;94182.56;4969688;28;20180;-76
2022/12/10 00:34:02;;;;;;;15.83;9.03;;;;;;;9.21;93.40;94186.72;4991484;28;20183;-75
2022/12/10 00:36:34;;;;;;;25.13;8.73;;;;;;;9.21;93.24;94180.66;4989607;28;20519;-75
2022/12/10 00:39:01;;;;;;;25.02;11.50;;;;;;;9.13;93.82;94183.59;4971827;28;20996;-75
2022/12/10 00:41:26;;;;;;;22.10;10.07;;;;;;;9.13;94.05;94202.75;4971930;28;20461;-75
2022/12/10 00:43:52;;;;;;;23.10;10.03;;;;;;;9.20;94.18;94192.19;4973086;28;20182;-75
2022/12/10 00:46:18;;;;;;;20.13;8.87;;;;;;;9.37;93.31;94177.44;4986304;28;20683;-75
2022/12/10 00:48:45;;;;;;;17.90;8.95;;;;;;;9.36;93.29;94171.38;4990603;28;20498;-75
2022/12/10 00:51:13;;;;;;;16.37;8.47;;;;;;;9.28;93.62;94184.00;4990922;28;20420;-75
2022/12/10 00:53:40;;;;;;;14.83;6.40;;;;;;;9.45;92.49;94191.09;4983483;28;20243;-75
2022/12/10 00:56:08;;;;;;;19.38;6.20;;;;;;;9.59;92.15;94196.19;4990759;28;20416;-75
2022/12/10 00:58:35;;;;;;;15.90;6.43;;;;;;;9.55;92.24;94200.28;4991279;28;20582;-74
2022/12/10 01:01:21;;;;;;;18.98;6.55;;;;;;;9.77;90.98;94181.19;4981001;28;20965;-76
2022/12/10 01:03:49;;;;;;;21.43;5.70;;;;;;;9.73;90.40;94155.59;4971256;28;20249;-75
2022/12/10 01:06:16;;;;;;;17.42;6.93;;;;;;;9.79;90.84;94194.91;4971453;28;20504;-76
2022/12/10 01:08:43;;;;;;;19.90;6.80;;;;;;;9.34;92.37;94170.03;4970159;28;20449;-76
2022/12/10 01:11:10;;;;;;;13.37;5.63;;;;;;;9.60;92.38;94185.44;4971528;28;20170;-75
2022/12/10 01:13:37;;;;;;;16.15;6.38;;;;;;;9.64;92.68;94191.88;4988022;28;20777;-76
2022/12/10 01:16:05;;;;;;;20.42;6.85;;;;;;;9.69;92.08;94188.56;4972330;28;20890;-75
2022/12/10 01:18:31;;;;;;;12.30;5.40;;;;;;;9.59;92.35;94172.56;4992005;28;20173;-77
2022/12/10 01:21:04;;;;;;;13.27;6.13;;;;;;;9.66;92.64;94168.81;4983818;28;20188;-76
2022/12/10 01:23:32;;;;;;;15.40;6.95;;;;;;;9.73;92.51;94174.78;4983570;28;20333;-76
2022/12/10 01:26:12;;;;;;;19.83;8.60;;;;;;;9.65;92.83;94174.28;4991208;28;20420;-76
2022/12/10 01:28:39;;;;;;;16.93;6.17;;;;;;;9.70;92.83;94169.97;4969442;28;20590;-76
2022/12/10 01:31:10;;;;;;;20.13;7.85;;;;;;;9.62;92.84;94169.47;4979451;28;20424;-77
2022/12/10 01:33:37;;;;;;;19.67;6.93;;;;;;;9.63;92.73;94140.34;4976889;28;20173;-75
2022/12/10 01:36:05;;;;;;;20.83;7.33;;;;;;;9.70;92.80;94161.28;4983011;28;20184;-75
2022/12/10 01:38:31;;;;;;;14.33;5.03;;;;;;;9.59;92.48;94141.03;4973148;28;20173;-75
2022/12/10 01:40:57;;;;;;;22.60;7.83;;;;;;;9.70;92.70;94169.97;4971374;28;20410;-75
2022/12/10 01:43:22;;;;;;;19.53;7.40;;;;;;;9.55;92.95;94155.59;4971589;28;20171;-75
2022/12/10 01:45:48;;;;;;;14.47;7.03;;;;;;;9.60;92.90;94151.28;4971482;28;20173;-75
2022/12/10 01:48:13;;;;;;;17.07;8.27;;;;;;;9.74;93.19;94167.69;4971525;28;20205;-75
2022/12/10 01:50:39;;;;;;;16.40;7.63;;;;;;;9.63;93.45;94179.75;4970765;28;20981;-76
2022/12/10 01:53:05;;;;;;;11.83;5.10;;;;;;;9.75;92.00;94146.47;4971859;28;20448;-76
2022/12/10 01:55:47;;;;;;;13.30;5.27;;;;;;;9.91;92.14;94166.06;4972238;28;20247;-76
2022/12/10 01:58:16;;;;;;;11.67;5.10;;;;;;;9.96;92.08;94168.78;4977036;28;20172;-76
2022/12/10 02:00:51;;;;;;;7.53;5.03;;;;;;;10.03;91.87;94155.59;4991444;28;20220;-76
2022/12/10 02:03:35;;;;;;;14.27;4.78;;;;;;;10.10;91.38;94157.09;4989720;28;20966;-77
2022/12/10 02:06:17;;;;;;;15.27;5.35;;;;;;;10.07;91.47;94133.84;4988586;28;20435;-76
2022/12/10 02:09:20;;;;;;;12.98;5.70;;;;;;;10.23;91.22;94155.28;4990896;28;20567;-76
2022/12/10 02:12:04;;;;;;;12.50;4.63;;;;;;;10.28;91.02;94160.69;4979033;28;20193;-76
2022/12/10 02:14:34;;;;;;;16.80;5.83;;;;;;;10.25;90.89;94176.94;4990025;28;20423;-76
2022/12/10 02:17:07;;;;;;;14.07;5.80;;;;;;;9.89;92.30;94169.91;4990054;28;20408;-76
2022/12/10 02:19:55;;;;;;;15.75;6.25;;;;;;;9.80;93.09;94153.66;4990090;28;20496;-76
2022/12/10 02:22:25;;;;;;;14.07;4.90;;;;;;;10.01;92.53;94142.66;4972387;28;20188;-76
2022/12/10 02:24:53;;;;;;;13.73;6.30;;;;;;;10.01;92.50;94153.16;4989537;28;20423;-76
2022/12/10 02:28:10;;;;;;;16.17;5.93;;;;;;;10.00;92.83;94156.03;4987622;28;20190;-77
2022/12/10 02:30:38;;;;;;;17.20;6.03;;;;;;;10.02;92.45;94138.19;4931404;29;20190;-76
2022/12/10 02:33:06;;;;;;;11.20;5.80;;;;;;;10.19;92.07;94142.63;4975370;28;20201;-76
2022/12/10 02:35:38;;;;;;;18.60;6.77;;;;;;;10.26;91.28;94134.63;4982097;28;20208;-76
2022/12/10 02:38:18;;;;;;;15.57;7.20;;;;;;;10.06;90.87;94107.78;4971821;28;20640;-76
2022/12/10 02:40:48;;;;;;;14.52;7.10;;;;;;;10.16;91.33;94126.44;4971835;28;20425;-76
2022/12/10 02:43:15;;;;;;;15.77;6.60;;;;;;;10.24;91.43;94125.34;4975104;28;20212;-76
2022/12/10 02:45:42;;;;;;;15.75;7.30;;;;;;;10.25;91.61;94116.44;4974616;28;20433;-76
2022/12/10 02:48:09;;;;;;;17.98;8.02;;;;;;;10.31;91.38;94133.94;4973633;28;20488;-76
2022/12/10 02:50:35;;;;;;;18.52;7.35;;;;;;;10.23;90.45;94116.66;4992192;28;20478;-76
2022/12/10 02:53:00;;;;;;;17.73;6.20;;;;;;;10.31;91.03;94120.78;4994530;28;20691;-76
2022/12/10 02:55:26;;;;;;;18.43;7.80;;;;;;;10.15;91.12;94111.69;4994284;28;20507;-76
2022/12/10 02:58:10;;;;;;;16.93;6.57;;;;;;;10.29;91.31;94136.00;4985704;28;20615;-76
2022/12/10 03:00:45;;;;;;;14.38;6.93;;;;;;;10.17;91.96;94134.16;4993697;28;20416;-76
2022/12/10 03:03:17;;;;;;;16.67;6.80;;;;;;;10.12;92.56;94120.03;4993054;28;20435;-76
2022/12/10 03:05:55;;;;;;;17.07;6.20;;;;;;;10.10;92.90;94127.34;4993990;28;20252;-76
2022/12/10 03:08:28;;;;;;;18.63;6.87;;;;;;;10.12;93.25;94126.09;4985611;28;20209;-76
2022/12/10 03:11:15;;;;;;;23.87;8.23;;;;;;;10.08;93.56;94111.00;4981494;28;20178;-76
2022/12/10 03:14:02;;;;;;;29.97;9.77;;;;;;;10.19;93.39;94126.84;4979130;28;20184;-76
2022/12/10 03:16:51;;;;;;;19.60;8.37;;;;;;;10.08;93.42;94103.09;4984919;28;20186;-76
2022/12/10 03:19:20;;;;;;;20.75;9.10;;;;;;;10.02;94.18;94112.72;4972980;28;20414;-76
2022/12/10 03:21:49;;;;;;;14.13;6.30;;;;;;;10.10;94.03;94115.00;4974339;28;20208;-76
2022/12/10 03:24:16;;;;;;;12.43;6.50;;;;;;;9.97;93.92;94096.00;4977425;28;20238;-76
2022/12/10 03:26:45;;;;;;;21.93;7.50;;;;;;;10.12;94.06;94126.09;4993719;28;20576;-76
2022/12/10 03:29:18;;;;;;;23.47;7.53;;;;;;;10.16;94.28;94113.28;4993984;28;20193;-76
2022/12/10 03:31:45;;;;;;;18.75;9.43;;;;;;;9.98;94.92;94116.00;4993371;28;20424;-76
2022/12/10 03:34:11;;;;;;;14.52;7.30;;;;;;;9.91;95.59;94110.84;4992268;28;20807;-75
2022/12/10 03:36:38;;;;;;;13.30;6.32;;;;;;;9.93;94.79;94108.00;4993009;28;20427;-76
2022/12/10 03:39:05;;;;;;;20.00;8.43;;;;;;;10.04;94.66;94115.09;4993664;28;20648;-76
2022/12/10 03:41:31;;;;;;;16.40;6.97;;;;;;;10.20;94.41;94109.22;4993606;28;20177;-76
2022/12/10 03:43:58;;;;;;;19.73;8.20;;;;;;;10.26;94.23;94102.25;4993079;28;20420;-76
2022/12/10 03:46:26;;;;;;;12.77;6.20;;;;;;;10.20;94.16;94109.22;4993536;28;20177;-76
2022/12/10 03:48:52;;;;;;;12.87;6.33;;;;;;;10.01;93.71;94071.66;4977588;28;20437;-76
2022/12/10 03:51:17;;;;;;;15.05;6.22;;;;;;;10.09;94.16;94058.19;4972565;28;20440;-76
2022/12/10 03:53:43;;;;;;;13.20;6.00;;;;;;;10.26;94.91;94079.38;4972479;28;20829;-76
2022/12/10 03:56:08;;;;;;;15.43;6.27;;;;;;;10.34;95.68;94065.88;4971417;28;20426;-76
2022/12/10 03:58:34;;;;;;;15.20;5.60;;;;;;;10.56;95.25;94092.41;4972385;28;20425;-76
2022/12/10 04:00:59;;;;;;;14.13;5.67;;;;;;;10.64;95.23;94094.69;4972614;28;20429;-76
2022/12/10 04:03:25;;;;;;;13.47;6.17;;;;;;;10.61;94.55;94074.13;4979046;28;20189;-76
2022/12/10 04:05:50;;;;;;;12.37;5.13;;;;;;;10.92;93.78;94107.16;4992897;28;20217;-76
2022/12/10 04:08:15;;;;;;;12.67;5.47;;;;;;;10.87;93.73;94097.34;4972964;28;20949;-75
2022/12/10 04:10:41;;;;;;;9.53;4.80;;;;;;;10.93;94.14;94104.31;4973683;28;20185;-76
2022/12/10 04:18:34;;;;;;;12.98;5.13;;;;;;;10.93;93.12;94083.25;4989172;28;20807;-75
2022/12/10 04:29:12;;;;;;;18.42;6.03;;;;;;;11.07;93.59;94089.03;4971851;28;20441;-76
2022/12/10 04:31:37;;;;;;;12.52;5.97;;;;;;;10.96;93.90;94114.38;4972173;28;20422;-76
2022/12/10 04:34:02;;;;;;;12.30;5.10;;;;;;;10.89;94.09;94123.44;4972083;28;20409;-75
2022/12/10 04:36:28;;;;;;;7.33;4.73;;;;;;;10.78;94.67;94117.16;4976970;28;20181;-76
2022/12/10 04:38:53;;;;;;;10.00;4.57;;;;;;;10.87;94.90;94110.50;4985255;28;20181;-76
2022/12/10 04:41:19;;;;;;;12.35;5.15;;;;;;;10.77;94.69;94099.75;4971781;28;20475;-76
2022/12/10 04:43:44;;;;;;;10.23;4.70;;;;;;;10.82;94.35;94105.09;4972801;28;20463;-75
2022/12/10 04:46:10;;;;;;;15.53;5.13;;;;;;;10.87;94.34;94105.22;4972711;28;20470;-75
2022/12/10 04:48:35;;;;;;;9.43;4.40;;;;;;;10.85;94.84;94123.09;4972929;28;20205;-76
2022/12/10 04:51:01;;;;;;;8.43;4.40;;;;;;;10.77;94.59;94102.38;4971652;28;20220;-76
2022/12/10 04:53:26;;;;;;;11.90;5.00;;;;;;;10.77;94.61;94122.63;4971523;28;20431;-75
2022/12/10 04:55:52;;;;;;;11.17;4.73;;;;;;;10.79;94.86;94113.47;4972808;28;20231;-75
2022/12/10 04:58:17;;;;;;;10.03;4.50;;;;;;;10.68;94.65;94090.59;4972865;28;20177;-76
2022/12/10 05:00:43;;;;;;;10.10;5.07;;;;;;;10.83;94.67;94101.44;4988725;28;20568;-76
2022/12/10 05:03:08;;;;;;;11.13;5.63;;;;;;;10.86;94.78;94113.34;4992323;28;20173;-76
2022/12/10 05:05:34;;;;;;;14.77;6.33;;;;;;;10.82;95.04;94117.47;4990909;28;20735;-76
2022/12/10 05:08:00;;;;;;;18.70;8.03;;;;;;;10.74;95.47;94102.81;4985344;28;20236;-76
2022/12/10 05:10:26;;;;;;;11.93;6.03;;;;;;;10.72;95.38;94104.09;4972625;28;20649;-76
2022/12/10 05:12:51;;;;;;;17.23;6.97;;;;;;;10.50;95.47;94056.50;4983587;28;20177;-76
2022/12/10 05:15:17;;;;;;;11.73;5.90;;;;;;;10.84;95.41;94096.97;4978640;28;20182;-76
2022/12/10 05:17:43;;;;;;;13.55;7.65;;;;;;;10.43;96.67;94090.03;4971508;28;20425;-76
2022/12/10 05:20:09;;;;;;;15.03;6.83;;;;;;;10.46;97.57;94089.59;4972457;28;20288;-76
2022/12/10 05:25:18;;;;;;;14.32;5.40;;;;;;;10.81;96.80;94073.78;4990339;28;20418;-75
2022/12/10 05:27:43;;;;;;;10.53;4.80;;;;;;;10.70;96.72;94056.16;4991489;28;20936;-76
2022/12/10 05:30:10;;;;;;;14.90;5.83;;;;;;;10.83;97.37;94093.53;4991538;28;20176;-76
2022/12/10 05:32:35;;;;;;;20.65;9.07;;;;;;;10.74;97.92;94110.72;4990120;28;20418;-75
2022/12/10 05:35:01;;;;;;;9.83;6.10;;;;;;;10.63;98.25;94101.03;4975740;28;20577;-76
2022/12/10 05:37:28;;;;;;;13.73;6.67;;;;;;;10.48;98.67;94111.19;4989007;28;20411;-76
2022/12/10 05:39:54;;;;;;;11.73;5.67;;;;;;;10.42;99.05;94106.84;4992108;28;20970;-76
2022/12/10 05:42:19;;;;;;;19.83;6.27;;;;;;;10.50;99.40;94103.88;4992162;28;20632;-76
2022/12/10 05:44:44;;;;;;;14.87;5.63;;;;;;;10.54;99.23;94105.03;4991751;28;20181;-76
2022/12/10 05:47:10;;;;;;;13.20;6.47;;;;;;;10.59;99.26;94110.38;4981499;28;20205;-76
2022/12/10 05:49:35;;;;;;;12.80;5.93;;;;;;;10.64;99.04;94105.22;4975588;28;20565;-76
2022/12/10 05:52:01;;;;;;;13.70;6.43;;;;;;;10.64;99.08;94118.38;4990113;28;20423;-76
2022/12/10 05:54:26;;;;;;;14.07;6.60;;;;;;;10.58;99.39;94114.84;4991688;28;20177;-76
2022/12/10 05:56:53;;;;;;;12.30;6.63;;;;;;;10.68;99.66;94106.38;4971480;28;20333;-76
2022/12/10 05:59:18;;;;;;;14.43;7.43;;;;;;;10.66;99.41;94100.53;4970487;28;20429;-76
2022/12/10 06:01:44;;;;;;;15.40;6.90;;;;;;;10.69;99.81;94108.00;4971593;28;20189;-76
2022/12/10 06:04:09;;;;;;;17.00;8.70;;;;;;;10.41;100.00;94121.81;4970316;28;20444;-77
2022/12/10 06:06:37;;;;;;;15.27;8.77;;;;;;;10.27;100.00;94109.13;4969220;28;20425;-76
2022/12/10 06:09:04;;;;;;;14.47;8.27;;;;;;;10.33;100.00;94121.34;4972038;28;20448;-77
2022/12/10 06:11:30;;;;;;;14.63;8.38;;;;;;;10.38;100.00;94116.22;4986613;28;20415;-76
2022/12/10 06:13:59;;;;;;;16.90;8.07;;;;;;;10.49;100.00;94131.19;4974217;28;20184;-76
2022/12/10 06:16:26;;;;;;;14.83;8.30;;;;;;;10.59;100.00;94136.72;4973871;28;20173;-77
2022/12/10 06:18:52;;;;;;;16.08;8.80;;;;;;;10.51;100.00;94134.41;4989369;28;20426;-76
2022/12/10 06:21:19;;;;;;;14.87;7.70;;;;;;;10.51;100.00;94124.69;4986487;28;20227;-77
2022/12/10 06:23:45;;;;;;;19.77;6.30;;;;;;;10.43;100.00;94096.09;4995395;28;20263;-77
2022/12/10 06:26:17;;;;;;;12.47;5.90;;;;;;;10.69;99.84;94117.72;4995167;28;20177;-76
2022/12/10 06:28:45;;;;;;;17.35;7.70;;;;;;;10.68;99.99;94101.13;4993234;28;20436;-76
2022/12/10 06:31:10;;;;;;;14.00;7.38;;;;;;;10.62;99.66;94101.25;4994040;28;20415;-76
2022/12/10 06:33:36;;;;;;;14.27;6.03;;;;;;;10.56;100.00;94069.53;4994988;28;20180;-77
2022/12/10 06:36:06;;;;;;;11.53;6.17;;;;;;;10.57;99.64;94079.03;4994473;28;20412;-76
2022/12/10 06:38:32;;;;;;;16.87;9.23;;;;;;;10.56;99.58;94060.84;4994956;28;20261;-77
2022/12/10 06:40:58;;;;;;;25.17;12.53;;;;;;;10.62;99.63;94075.72;4985109;28;20185;-77
2022/12/10 06:43:23;;;;;;;31.13;14.13;;;;;;;10.77;99.29;94099.75;4975440;28;20178;-77
2022/12/10 06:45:48;;;;;;;28.23;13.00;;;;;;;10.82;99.28;94115.63;4980894;28;20260;-77
2022/12/10 06:48:14;;;;;;;30.10;14.83;;;;;;;10.87;99.38;94109.69;4994635;28;20292;-77
2022/12/10 06:50:40;;;;;;;31.05;14.23;;;;;;;10.89;99.28;94126.88;4975863;28;20793;-76
2022/12/10 06:53:06;;;;;;;25.27;14.43;;;;;;;10.76;99.31;94110.50;4978609;28;20560;-76
2022/12/10 06:55:31;;;;;;;27.50;14.60;;;;;;;10.79;99.85;94144.28;4979036;28;20455;-77
2022/12/10 06:57:57;;;;;;;33.23;12.37;;;;;;;10.74;100.00;94134.41;4975283;28;20275;-77
2022/12/10 07:00:23;;;;;;;24.43;12.43;;;;;;;10.86;100.00;94116.78;4985385;28;20192;-77
2022/12/10 07:02:49;;;;;;;22.50;8.80;;;;;;;10.79;100.00;94108.22;4994727;28;20181;-77
2022/12/10 07:05:15;;;;;;;12.13;8.13;;;;;;;10.82;100.00;94113.00;4994504;28;20595;-77
2022/12/10 07:07:40;;;;;;;22.73;9.57;;;;;;;10.94;100.00;94137.50;4993445;28;20219;-77
2022/12/10 07:10:07;;;;;;;18.20;8.00;;;;;;;10.87;100.00;94136.81;4993284;28;20571;-77
2022/12/10 07:12:32;;;;;;;15.17;6.40;;;;;;;10.88;100.00;94140.25;4990670;28;20744;-77
2022/12/10 07:14:57;;;;;;;13.97;6.57;;;;;;;10.80;100.00;94119.56;4990085;28;20264;-77
2022/12/10 07:17:23;;;;;;;15.93;7.33;;;;;;;11.01;100.00;94129.47;4986019;28;20723;-77
2022/12/10 07:19:48;;;;;;;11.70;5.77;;;;;;;11.04;99.53;94109.78;4973281;28;20181;-77
2022/12/10 07:22:14;;;;;;;15.53;8.10;;;;;;;11.14;99.96;94108.16;4972709;28;20174;-77
2022/12/10 07:24:39;;;;;;;15.97;6.60;;;;;;;11.32;98.37;94108.00;4973964;28;20185;-77
2022/12/10 07:27:06;;;;;;;12.57;5.90;;;;;;;11.28;98.12;94104.22;4973359;28;20649;-77
2022/12/10 07:29:31;;;;;;;9.37;5.70;;;;;;;11.20;98.22;94103.78;4993811;28;20205;-77
2022/12/10 07:31:57;;;;;;;13.90;5.97;;;;;;;11.14;98.75;94094.19;4974822;28;20740;-77
2022/12/10 07:34:22;;;;;;;12.53;5.63;;;;;;;11.30;98.00;94098.72;4980894;28;20188;-77
2022/12/10 07:36:48;;;;;;;14.80;5.40;;;;;;;11.38;97.15;94100.19;4993931;28;20675;-77
2022/12/10 07:39:17;;;;;;;8.97;5.30;;;;;;;11.39;96.94;94107.06;4993985;28;20645;-77
2022/12/10 07:41:52;;;;;;;8.67;5.53;;;;;;;11.33;97.04;94092.97;4989153;28;20181;-77
2022/12/10 07:44:25;;;;;;;13.40;7.63;;;;;;;11.38;97.50;94102.84;4974605;28;20652;-77
2022/12/10 07:46:52;;;;;;;23.07;11.33;;;;;;;11.47;97.87;94107.50;4976038;28;20200;-77
2022/12/10 07:49:18;;;;;;;8.07;5.67;;;;;;;11.26;97.05;94090.47;4994029;28;20239;-77
2022/12/10 07:51:48;;;;;;;17.13;6.03;;;;;;;11.43;97.31;94101.09;4992584;28;20177;-77
2022/12/10 07:54:14;;;;;;;12.77;6.67;;;;;;;11.49;97.01;94094.91;4993982;28;20181;-77
2022/12/10 07:56:40;;;;;;;11.27;5.17;;;;;;;11.58;96.31;94104.03;4993813;28;20173;-77
2022/12/10 07:59:05;;;;;;;16.33;5.87;;;;;;;11.48;96.31;94085.38;4984804;28;20172;-77
2022/12/10 08:01:31;;;;;;;14.97;6.43;;;;;;;11.55;96.64;94088.69;4993533;28;20660;-77
2022/12/10 08:03:56;;;;;;;13.07;6.03;;;;;;;11.47;95.77;94061.91;4993387;28;20243;-76
2022/12/10 08:06:23;;;;;;;14.33;5.97;;;;;;;11.65;95.98;94082.78;4985317;28;20906;-77
2022/12/10 08:08:49;;;;;;;12.97;6.17;;;;;;;11.62;96.34;94064.81;4973039;28;20730;-78
2022/12/10 08:11:16;;;;;;;14.00;6.13;;;;;;;11.71;95.54;94063.38;4981521;28;20616;-77
2022/12/10 08:13:42;;;;;;;9.67;4.80;;;;;;;11.78;95.56;94058.78;4988676;28;20181;-78
2022/12/10 08:16:12;;;;;;;11.37;5.80;;;;;;;11.78;94.98;94047.44;4989527;28;20181;-78
2022/12/10 08:18:38;;;;;;;12.97;6.53;;;;;;;11.94;95.42;94049.28;4980768;28;20618;-76
2022/12/10 08:21:08;;;;;;;13.37;5.60;;;;;;;12.16;94.43;94073.94;4986573;28;20213;-77
2022/12/10 08:23:34;;;;;;;14.20;5.70;;;;;;;12.27;93.84;94072.28;4954380;28;20924;-76
2022/12/10 08:26:11;;;;;;;9.73;5.60;;;;;;;12.32;92.48;94074.97;4972731;28;20272;-76
2022/12/10 08:28:37;;;;;;;13.23;7.73;;;;;;;12.25;92.65;94075.16;4973241;28;20284;-75
2022/12/10 08:31:04;;;;;;;14.20;9.57;;;;;;;12.29;92.56;94070.16;4973282;28;20258;-74
2022/12/10 08:33:29;;;;;;;18.70;10.50;;;;;;;12.30;92.49;94071.78;4972885;28;20170;-74
2022/12/10 08:35:59;;;;;;;13.47;9.20;;;;;;;12.26;93.14;94049.56;4967398;28;20178;-75
2022/12/10 08:38:25;;;;;;;17.47;8.50;;;;;;;12.41;92.66;94057.69;4964286;28;20657;-75
2022/12/10 08:40:51;;;;;;;19.30;8.40;;;;;;;12.44;92.36;94055.38;4962192;28;20265;-75
2022/12/10 08:43:16;;;;;;;13.70;7.97;;;;;;;12.48;92.84;94055.69;4964003;28;20309;-76
2022/12/10 08:45:41;;;;;;;20.17;8.90;;;;;;;12.46;92.54;94060.41;4964476;28;20276;-75
2022/12/10 08:48:07;;;;;;;17.43;7.93;;;;;;;12.61;91.99;94062.47;4964116;28;20202;-74
2022/12/10 08:50:32;;;;;;;18.83;8.50;;;;;;;12.64;93.40;94019.72;4966442;28;20259;-75
2022/12/10 08:52:59;;;;;;;14.17;6.73;;;;;;;13.15;92.05;94058.97;4965018;28;20185;-75
2022/12/10 08:55:25;;;;;;;17.63;7.47;;;;;;;13.35;89.92;94055.00;4958323;28;20999;-76
2022/12/10 08:57:50;;;;;;;19.30;7.10;;;;;;;13.44;89.40;94050.88;4965144;28;20245;-75
2022/12/10 09:00:16;;;;;;;15.53;6.23;;;;;;;13.47;88.77;94053.81;4966147;28;20181;-74
2022/12/10 09:02:41;;;;;;;14.27;7.13;;;;;;;13.68;89.52;94051.38;4960372;28;20657;-75
2022/12/10 09:05:07;;;;;;;19.13;7.00;;;;;;;13.94;88.22;94045.28;4962651;28;20225;-75
2022/12/10 09:07:33;;;;;;;13.57;6.50;;;;;;;14.12;86.65;94042.25;4963263;28;20201;-76
2022/12/10 09:09:58;;;;;;;10.30;6.63;;;;;;;14.20;85.75;94049.72;4963700;28;20567;-75
2022/12/10 09:12:23;;;;;;;14.50;7.37;;;;;;;14.15;85.61;94047.06;4963274;28;20182;-76
2022/12/10 09:14:49;;;;;;;16.87;7.23;;;;;;;14.34;85.67;94035.03;4963485;28;20204;-75
2022/12/10 09:17:14;;;;;;;11.90;6.87;;;;;;;14.59;84.41;94038.94;4965164;28;20178;-75
2022/12/10 09:19:40;;;;;;;13.27;6.03;;;;;;;14.75;83.63;94042.47;4962929;28;20554;-75
2022/12/10 09:22:05;;;;;;;13.20;7.13;;;;;;;14.90;83.02;94046.00;4959707;28;20177;-75
2022/12/10 09:24:31;;;;;;;12.43;6.07;;;;;;;14.87;82.08;94037.78;4966454;28;20178;-75
2022/12/10 09:26:56;;;;;;;13.90;6.53;;;;;;;14.75;82.88;94045.09;4964087;28;20176;-75
2022/12/10 09:29:21;;;;;;;10.97;5.90;;;;;;;14.87;83.37;94019.22;4965515;28;20197;-75
2022/12/10 09:31:51;;;;;;;9.37;6.00;;;;;;;14.91;83.88;93996.44;4961830;28;20189;-75
2022/12/10 09:34:16;;;;;;;10.53;5.50;;;;;;;15.28;82.84;94007.72;4964349;28;20308;-75
2022/12/10 09:36:42;;;;;;;10.47;5.83;;;;;;;15.60;82.15;94009.41;4963024;28;20181;-75
2022/12/10 09:39:07;;;;;;;11.27;6.63;;;;;;;15.78;79.28;94019.53;4966753;28;20228;-75
2022/12/10 09:41:41;;;;;;;9.43;5.40;;;;;;;15.67;78.76;94012.59;4961781;28;20188;-75
2022/12/10 09:44:35;;;;;;;9.97;5.47;;;;;;;15.54;79.26;93982.09;4958838;28;20178;-75
2022/12/10 09:47:03;;;;;;;10.00;4.90;;;;;;;15.31;80.65;94004.53;4958606;28;22421;-75
2022/12/10 09:49:47;;;;;;;9.40;5.33;;;;;;;15.21;80.85;94001.88;4961456;28;20196;-75
2022/12/10 09:52:16;;;;;;;10.20;5.57;;;;;;;15.14;81.64;93996.00;4962730;28;20190;-75
2022/12/10 09:54:54;;;;;;;9.13;4.80;;;;;;;15.23;81.82;93994.44;4962227;28;20693;-75
2022/12/10 09:57:28;;;;;;;9.13;5.40;;;;;;;15.28;81.51;93999.78;4966990;28;20192;-75
2022/12/10 09:59:54;;;;;;;7.40;4.67;;;;;;;15.27;81.19;93976.97;4959461;28;20264;-75
2022/12/10 10:02:25;;;;;;;13.17;5.30;;;;;;;15.49;80.15;93982.03;4970639;28;20192;-74
2022/12/10 10:04:54;;;;;;;8.77;4.43;;;;;;;15.42;79.81;93982.28;4971253;28;20283;-75
2022/12/10 10:07:30;;;;;;;12.47;4.80;;;;;;;15.26;80.65;93954.16;4969998;28;20221;-74
2022/12/10 10:10:03;;;;;;;6.67;4.47;;;;;;;15.49;81.34;93974.88;4972090;28;20232;-76
2022/12/10 10:12:31;;;;;;;19.77;5.60;;;;;;;15.48;79.81;93975.13;4967924;28;20185;-76
2022/12/10 10:14:56;;;;;;;13.83;5.47;;;;;;;15.29;80.65;93976.69;4963762;28;20189;-75
2022/12/10 10:17:36;;;;;;;8.50;4.77;;;;;;;15.13;80.84;93981.16;4952485;28;20670;-75
2022/12/10 10:20:01;;;;;;;7.37;5.40;;;;;;;15.14;82.34;93969.47;4958235;28;20559;-75
2022/12/10 10:22:27;;;;;;;9.57;4.83;;;;;;;15.18;81.27;93951.22;4970703;28;20190;-75
2022/12/10 10:24:53;;;;;;;11.47;5.87;;;;;;;15.19;81.24;93956.25;4971553;28;20260;-75
2022/12/10 10:27:27;;;;;;;9.00;4.70;;;;;;;15.31;81.90;93945.41;4971576;28;20575;-75
2022/12/10 10:29:56;;;;;;;7.23;4.93;;;;;;;15.39;81.26;93934.28;4970777;28;20200;-75
2022/12/10 10:32:23;;;;;;;13.57;5.10;;;;;;;15.54;80.96;93931.69;4966454;28;20920;-75
2022/12/10 10:34:57;;;;;;;11.97;5.73;;;;;;;15.55;80.31;93927.19;4952644;28;20174;-75
2022/12/10 10:37:38;;;;;;;11.77;5.40;;;;;;;15.43;80.68;93919.44;4972025;28;20187;-75
2022/12/10 10:40:05;;;;;;;11.33;4.77;;;;;;;15.30;80.91;93915.47;4971058;28;20248;-75
2022/12/10 10:42:35;;;;;;;8.53;5.03;;;;;;;15.29;80.64;93927.13;4971031;28;21009;-75
2022/12/10 10:45:05;;;;;;;11.13;5.40;;;;;;;15.33;80.74;93924.72;4971308;28;20176;-74
2022/12/10 10:47:34;;;;;;;10.30;5.40;;;;;;;15.39;80.84;93929.75;4979694;28;20775;-76
2022/12/10 10:49:59;;;;;;;15.07;6.43;;;;;;;15.42;81.16;93915.19;4966337;28;20182;-76
2022/12/10 10:52:37;;;;;;;10.70;5.73;;;;;;;15.47;79.53;93921.31;4969948;28;20182;-75
2022/12/10 10:55:03;;;;;;;8.97;5.00;;;;;;;15.43;79.48;93909.63;4970374;28;20177;-75
2022/12/10 10:57:33;;;;;;;12.97;5.70;;;;;;;15.42;79.89;93908.03;4970570;28;20169;-74
2022/12/10 11:00:22;;;;;;;11.57;5.00;;;;;;;15.46;79.67;93914.41;4970500;28;20184;-75
2022/12/10 11:02:48;;;;;;;7.60;4.80;;;;;;;15.49;79.63;93908.56;4968568;28;20190;-76
2022/12/10 11:05:27;;;;;;;12.93;5.27;;;;;;;15.52;79.98;93912.56;4974288;28;20228;-74
2022/12/10 11:08:02;;;;;;;11.80;5.50;;;;;;;15.58;79.53;93905.41;4974566;28;20209;-75
2022/12/10 11:10:28;;;;;;;13.20;4.67;;;;;;;15.45;80.00;93883.63;4974953;28;20178;-75
2022/12/10 11:13:00;;;;;;;8.73;4.53;;;;;;;15.47;79.97;93894.78;4968802;28;20171;-76
2022/12/10 11:15:44;;;;;;;12.00;4.73;;;;;;;15.49;81.10;93882.03;4955114;28;20317;-76
2022/12/10 11:18:35;;;;;;;11.17;4.67;;;;;;;15.52;80.82;93869.31;4954701;28;20173;-75
2022/12/10 11:21:13;;;;;;;9.00;4.53;;;;;;;15.57;80.23;93867.47;4972585;28;20191;-76
2022/12/10 11:23:41;;;;;;;7.03;3.70;;;;;;;15.54;80.59;93862.72;4994370;28;20166;-76
2022/12/10 11:26:25;;;;;;;6.90;3.70;;;;;;;15.51;80.52;93852.59;4992832;28;20247;-76
2022/12/10 11:29:07;;;;;;;9.10;4.53;;;;;;;15.48;81.30;93851.25;4991524;28;20201;-76
2022/12/10 11:31:57;;;;;;;12.67;4.30;;;;;;;15.46;81.35;93848.09;4991432;28;20569;-76
2022/12/10 11:34:48;;;;;;;9.40;4.53;;;;;;;15.50;81.56;93851.00;4990742;28;20187;-76
2022/12/10 11:37:28;;;;;;;9.47;4.53;;;;;;;15.54;81.07;93851.31;4992494;28;20176;-76
2022/12/10 11:40:12;;;;;;;12.10;4.90;;;;;;;15.56;80.82;93850.00;4993095;28;20228;-76
2022/12/10 11:42:56;;;;;;;8.53;4.30;;;;;;;15.60;80.20;93843.06;4989145;28;20174;-76
2022/12/10 11:45:41;;;;;;;7.33;4.17;;;;;;;15.47;81.22;93839.09;4972433;28;20178;-76
2022/12/10 11:48:43;;;;;;;11.07;4.50;;;;;;;15.56;81.31;93852.66;4973547;28;20201;-76
2022/12/10 11:51:19;;;;;;;8.30;5.73;;;;;;;15.61;79.59;93847.31;4973307;28;20173;-76
2022/12/10 11:54:03;;;;;;;10.97;5.00;;;;;;;15.60;79.24;93831.66;4973436;28;20249;-76